Time;durP1;ratioP1;P1;durP2;ratioP2;P2;SDS_P1;SDS_P2;PMS_P1;PMS_P2;Temp;Humidity;BMP_temperature;BMP_pressure;BME280_temperature;BME280_humidity;BME280_pressure;Samples;Min_cycle;Max_cycle;Signal;HPM_P1;HPM_P2
2021/05/22 00:01:54;;;;;;;5.12;1.80;;;;;;;12.00;100.00;98970.97;1721779;82;20866;-75
2021/05/22 00:04:29;;;;;;;7.70;2.05;;;;;;;12.00;100.00;98970.97;1666271;83;20946;-74
2021/05/22 00:07:05;;;;;;;3.52;2.15;;;;;;;11.97;100.00;98970.56;1719619;82;20913;-75
2021/05/22 00:12:32;;;;;;;7.40;2.20;;;;;;;11.91;100.00;98971.11;1592298;88;20957;-76
2021/05/22 00:15:10;;;;;;;3.98;2.35;;;;;;;11.86;100.00;98970.30;1715865;82;20917;-75
2021/05/22 00:17:33;;;;;;;10.98;2.50;;;;;;;11.81;100.00;98974.30;1719585;82;21132;-76
2021/05/22 00:20:12;;;;;;;6.25;2.10;;;;;;;11.78;100.00;98962.45;1720289;82;21424;-76
2021/05/22 00:22:48;;;;;;;2.60;1.80;;;;;;;11.79;100.00;98969.48;1684089;83;20990;-75
2021/05/22 00:25:22;;;;;;;2.50;2.00;;;;;;;11.80;100.00;98969.03;1751783;80;21472;-76
2021/05/22 00:27:56;;;;;;;7.90;2.50;;;;;;;11.78;100.00;98968.18;1750549;82;20937;-75
2021/05/22 00:30:32;;;;;;;7.47;2.70;;;;;;;11.77;100.00;98963.30;1751765;80;21324;-75
2021/05/22 00:33:10;;;;;;;9.15;2.27;;;;;;;11.75;100.00;98962.45;1730379;82;20929;-75
2021/05/22 00:35:40;;;;;;;5.58;2.35;;;;;;;11.74;100.00;98959.39;1721798;82;20858;-74
2021/05/22 00:38:17;;;;;;;5.03;2.40;;;;;;;11.72;100.00;98961.62;1682898;83;21516;-74
2021/05/22 00:40:57;;;;;;;;;;;;;;;;;;;;;
2021/05/22 00:43:20;;;;;;;6.85;2.60;;;;;;;11.65;100.00;98960.83;1713446;82;21090;-74
2021/05/22 00:46:04;;;;;;;15.23;2.47;;;;;;;11.65;100.00;98960.83;1662257;85;21448;-76
2021/05/22 00:48:36;;;;;;;11.60;2.70;;;;;;;11.64;100.00;98956.00;1716050;82;20878;-76
2021/05/22 00:51:19;;;;;;;5.03;2.33;;;;;;;11.62;100.00;98960.42;1737634;81;20862;-74
2021/05/22 00:53:54;;;;;;;5.75;2.70;;;;;;;11.62;100.00;98960.42;1737740;81;20870;-72
2021/05/22 00:56:29;;;;;;;;;;;;;;;11.59;100.00;98957.83;1727618;82;21085;-72
2021/05/22 00:59:01;;;;;;;5.37;2.17;;;;;;;11.59;100.00;98961.79;1708250;82;20148;-73
2021/05/22 01:01:38;;;;;;;5.17;2.05;;;;;;;11.58;100.00;98957.84;1700026;82;20871;-73
2021/05/22 01:04:17;;;;;;;4.40;2.22;;;;;;;11.54;100.00;98957.47;1701198;82;21390;-74
2021/05/22 01:09:42;;;;;;;5.30;1.82;;;;;;;11.51;100.00;98951.77;1672617;84;20898;-75
2021/05/22 01:12:16;;;;;;;5.12;2.10;;;;;;;11.49;100.00;98956.65;1669432;84;20975;-75
2021/05/22 01:15:02;;;;;;;5.10;2.40;;;;;;;11.48;100.00;98952.26;1680067;83;20914;-75
2021/05/22 01:17:31;;;;;;;4.17;2.08;;;;;;;11.46;100.00;98956.24;1697520;83;20993;-74
2021/05/22 01:20:36;;;;;;;6.17;2.25;;;;;;;11.44;100.00;98947.91;1697011;84;20950;-75
2021/05/22 01:23:30;;;;;;;4.60;2.22;;;;;;;11.43;100.00;98947.48;1697613;84;21429;-76
2021/05/22 01:25:58;;;;;;;9.25;1.80;;;;;;;11.46;100.00;98950.09;1694751;83;20949;-75
2021/05/22 01:28:35;;;;;;;3.58;1.60;;;;;;;11.43;100.00;98947.48;1710879;82;20922;-75
2021/05/22 01:31:17;;;;;;;2.33;1.75;;;;;;;11.43;100.00;98943.52;1729296;81;20927;-76
2021/05/22 01:33:51;;;;;;;3.62;2.15;;;;;;;11.40;100.00;98953.68;1730189;81;20930;-76
2021/05/22 01:36:20;;;;;;;2.05;1.40;;;;;;;11.34;100.00;98942.72;1731611;83;21449;-75
2021/05/22 01:39:07;;;;;;;3.08;1.50;;;;;;;11.30;100.00;98951.57;1687672;83;20954;-76
2021/05/22 01:41:49;;;;;;;3.33;2.00;;;;;;;11.26;100.00;98951.18;1730386;82;20919;-75
2021/05/22 01:44:51;;;;;;;2.85;1.82;;;;;;;11.22;100.00;98957.84;1676272;84;20993;-74
2021/05/22 01:47:31;;;;;;;5.08;2.30;;;;;;;11.18;100.00;98958.31;1665244;84;21484;-74
2021/05/22 01:50:06;;;;;;;4.03;2.35;;;;;;;11.18;100.00;98956.13;1657141;85;21080;-74
2021/05/22 01:52:49;;;;;;;3.67;2.30;;;;;;;11.17;100.00;98958.34;1667686;84;21439;-74
2021/05/22 01:55:24;;;;;;;5.15;2.20;;;;;;;11.16;100.00;98966.70;1693888;83;21061;-74
2021/05/22 01:57:53;;;;;;;3.03;1.70;;;;;;;11.15;100.00;98973.32;1685152;83;21108;-75
2021/05/22 02:00:28;;;;;;;7.87;2.65;;;;;;;11.14;100.00;98981.69;1696209;83;21826;-74
2021/05/22 02:03:46;;;;;;;5.40;2.58;;;;;;;11.16;100.00;98985.18;1682117;83;21497;-74
2021/05/22 02:06:05;;;;;;;4.60;2.30;;;;;;;11.18;100.00;98985.16;1625142;86;20962;-74
2021/05/22 02:08:45;;;;;;;13.50;2.35;;;;;;;11.19;100.00;98990.88;1657104;85;20984;-74
2021/05/22 02:11:25;;;;;;;3.98;2.17;;;;;;;11.18;100.00;98993.95;1664645;84;21440;-74
2021/05/22 02:14:17;;;;;;;3.70;1.95;;;;;;;11.17;100.00;98997.48;1668106;84;21543;-74
2021/05/22 02:16:50;;;;;;;3.67;2.17;;;;;;;11.17;100.00;98997.94;1684294;83;20915;-74
2021/05/22 02:19:24;;;;;;;3.40;2.15;;;;;;;11.18;100.00;99005.84;1696231;83;20899;-75
2021/05/22 02:21:55;;;;;;;4.90;2.20;;;;;;;11.19;100.00;99005.39;1696978;83;20959;-73
2021/05/22 02:24:27;;;;;;;6.42;2.60;;;;;;;11.19;100.00;99010.23;1697669;83;21605;-74
2021/05/22 02:27:07;;;;;;;5.90;2.20;;;;;;;11.19;100.00;99013.31;1683881;83;21445;-75
2021/05/22 02:29:40;;;;;;;3.37;2.10;;;;;;;11.15;100.00;99012.92;1696213;83;21407;-75
2021/05/22 02:32:10;;;;;;;3.55;2.20;;;;;;;11.13;100.00;99018.66;1677461;83;20880;-76
2021/05/22 02:34:59;;;;;;;3.30;2.22;;;;;;;11.14;100.00;99022.60;1696667;83;20919;-75
2021/05/22 02:37:35;;;;;;;6.25;3.37;;;;;;;11.15;100.00;99023.03;1673962;83;21406;-74
2021/05/22 02:40:23;;;;;;;7.20;3.90;;;;;;;11.18;100.00;99032.69;1697466;83;21426;-75
2021/05/22 02:45:43;;;;;;;12.60;4.33;;;;;;;11.22;100.00;99037.05;1699312;83;21445;-76
2021/05/22 02:48:18;;;;;;;11.10;5.10;;;;;;;11.24;100.00;99043.19;1714846;82;20922;-75
2021/05/22 02:50:56;;;;;;;8.40;4.03;;;;;;;11.21;100.00;99040.58;1749879;82;20878;-75
2021/05/22 02:53:29;;;;;;;10.23;3.87;;;;;;;11.19;100.00;99037.95;1724422;80;20929;-75
2021/05/22 02:55:59;;;;;;;7.50;4.10;;;;;;;11.18;100.00;99041.48;1751650;80;21042;-76
2021/05/22 02:58:27;;;;;;;11.22;4.87;;;;;;;11.20;100.00;99046.75;1751214;80;20993;-73
2021/05/22 03:00:54;;;;;;;6.83;4.42;;;;;;;11.21;100.00;99044.53;1750587;80;20902;-74
2021/05/22 03:03:22;;;;;;;11.20;4.05;;;;;;;11.24;100.00;99040.55;1750609;80;20937;-70
2021/05/22 03:05:50;;;;;;;6.42;3.40;;;;;;;11.25;100.00;99037.02;1750637;80;20933;-73
2021/05/22 03:08:18;;;;;;;16.32;4.03;;;;;;;11.28;100.00;99040.94;1750644;80;21025;-74
2021/05/22 03:10:46;;;;;;;10.60;4.78;;;;;;;11.34;100.00;99044.38;1723468;82;20945;-74
2021/05/22 03:13:25;;;;;;;12.53;3.65;;;;;;;11.38;100.00;99043.06;1721221;83;20878;-74
2021/05/22 03:15:55;;;;;;;6.40;3.47;;;;;;;11.40;100.00;99049.20;1682001;83;20902;-73
2021/05/22 03:18:23;;;;;;;9.95;3.62;;;;;;;11.43;100.00;99049.17;1721231;82;20938;-72
2021/05/22 03:20:51;;;;;;;7.03;3.25;;;;;;;11.44;100.00;99050.47;1721020;82;21043;-73
2021/05/22 03:23:19;;;;;;;6.47;3.50;;;;;;;11.48;100.00;99050.87;1748163;80;20897;-72
2021/05/22 03:25:46;;;;;;;6.17;3.52;;;;;;;11.54;100.00;99051.24;1725946;80;20897;-72
2021/05/22 03:28:14;;;;;;;6.25;3.45;;;;;;;11.59;100.00;99050.30;1721146;83;20933;-72
2021/05/22 03:30:43;;;;;;;7.17;4.03;;;;;;;11.65;100.00;99048.90;1684473;83;20918;-72
2021/05/22 03:33:12;;;;;;;9.68;4.35;;;;;;;11.73;100.00;99050.57;1725462;82;21026;-73
2021/05/22 03:35:43;;;;;;;5.97;3.47;;;;;;;11.79;100.00;99058.01;1721356;83;20935;-73
2021/05/22 03:38:12;;;;;;;4.15;3.75;;;;;;;11.88;100.00;99052.64;1716611;83;21436;-74
2021/05/22 03:40:49;;;;;;;;;;;;;;;11.97;100.00;99045.91;1724215;82;20917;-74
2021/05/22 03:43:24;;;;;;;7.65;3.80;;;;;;;12.04;100.00;99048.02;1740893;82;20483;-73
2021/05/22 03:45:59;;;;;;;8.25;4.10;;;;;;;12.12;100.00;99049.23;1743513;80;21019;-73
2021/05/22 03:48:28;;;;;;;6.43;4.30;;;;;;;12.19;100.00;99053.09;1721778;83;20937;-74
2021/05/22 03:51:10;;;;;;;8.18;3.70;;;;;;;12.29;100.00;99048.09;1672804;83;21480;-74
2021/05/22 03:53:28;;;;;;;5.75;3.58;;;;;;;12.41;100.00;99047.52;1744130;80;20918;-75
2021/05/22 03:55:58;;;;;;;7.83;3.35;;;;;;;12.50;100.00;99056.19;1751056;80;20890;-74
2021/05/22 03:58:28;;;;;;;7.10;2.95;;;;;;;12.58;100.00;99049.00;1751549;80;21129;-75
2021/05/22 04:01:01;;;;;;;4.80;3.12;;;;;;;12.67;100.00;99045.78;1736252;82;21431;-75
2021/05/22 04:03:29;;;;;;;4.50;2.35;;;;;;;12.69;100.00;99059.86;1724079;82;20909;-75
2021/05/22 04:06:07;;;;;;;6.60;2.60;;;;;;;12.75;100.00;99059.77;1721476;82;20921;-74
2021/05/22 04:08:38;;;;;;;4.25;2.80;;;;;;;12.83;100.00;99056.57;1716541;83;21467;-75
2021/05/22 04:11:10;;;;;;;5.05;2.70;;;;;;;12.92;100.00;99057.74;1722735;82;21452;-75
2021/05/22 04:13:38;;;;;;;7.00;3.77;;;;;;;12.99;100.00;99062.48;1684764;83;21468;-74
2021/05/22 04:16:05;;;;;;;5.35;2.80;;;;;;;13.05;100.00;99062.38;1697348;82;20945;-74
2021/05/22 04:18:33;;;;;;;6.72;2.98;;;;;;;13.11;100.00;99060.48;1750099;82;20941;-73
2021/05/22 04:21:00;;;;;;;5.30;2.83;;;;;;;13.17;100.00;99067.03;1750819;80;20929;-74
2021/05/22 04:23:28;;;;;;;8.18;3.00;;;;;;;13.27;100.00;99067.77;1750620;80;21443;-75
2021/05/22 04:25:59;;;;;;;7.62;3.10;;;;;;;13.36;100.00;99070.70;1743708;80;20953;-74
2021/05/22 04:28:27;;;;;;;9.75;3.30;;;;;;;13.42;100.00;99067.94;1695167;83;20917;-74
2021/05/22 04:30:54;;;;;;;3.95;3.33;;;;;;;13.52;100.00;99065.53;1721232;82;20901;-74
2021/05/22 04:33:25;;;;;;;5.45;3.27;;;;;;;13.61;100.00;99073.30;1684097;83;20931;-74
2021/05/22 04:35:53;;;;;;;4.97;3.40;;;;;;;13.72;100.00;99076.64;1696315;82;21416;-74
2021/05/22 04:38:33;;;;;;;6.87;3.98;;;;;;;13.88;100.00;99078.98;1750635;80;20937;-73
2021/05/22 04:40:55;;;;;;;9.03;3.95;;;;;;;14.00;100.00;99076.08;1724896;80;20926;-73
2021/05/22 04:43:23;;;;;;;9.05;4.25;;;;;;;14.12;100.00;99073.16;1684114;83;21476;-72
2021/05/22 04:45:52;;;;;;;5.90;3.65;;;;;;;14.25;100.00;99080.42;1710976;82;20914;-73
2021/05/22 04:48:19;;;;;;;7.15;3.65;;;;;;;14.36;100.00;99083.27;1735212;82;21024;-73
2021/05/22 04:50:47;;;;;;;5.47;3.12;;;;;;;14.49;100.00;99077.25;1737051;82;21409;-72
2021/05/22 04:53:15;;;;;;;4.53;3.05;;;;;;;14.64;100.00;99078.67;1737257;82;20886;-73
2021/05/22 04:55:42;;;;;;;8.40;3.60;;;;;;;14.74;100.00;99078.45;1713590;82;20962;-74
2021/05/22 04:58:10;;;;;;;7.62;3.60;;;;;;;14.84;100.00;99073.78;1707565;82;20973;-73
2021/05/22 05:00:39;;;;;;;6.50;2.87;;;;;;;14.96;100.00;99069.50;1708992;82;21089;-73
2021/05/22 05:03:10;;;;;;;5.15;2.87;;;;;;;15.08;100.00;99070.52;1658410;85;20967;-73
2021/05/22 05:05:38;;;;;;;4.40;2.77;;;;;;;15.23;100.00;99069.27;1707902;82;21436;-74
2021/05/22 05:08:06;;;;;;;3.77;2.90;;;;;;;15.36;100.00;99074.68;1707930;82;21428;-74
2021/05/22 05:10:39;;;;;;;5.92;2.65;;;;;;;15.49;100.00;99067.70;1639976;85;21460;-74
2021/05/22 05:13:10;;;;;;;4.78;2.42;;;;;;;15.59;100.00;99070.09;1708077;82;21046;-73
2021/05/22 05:15:44;;;;;;;3.10;2.45;;;;;;;15.72;100.00;99070.66;1693591;82;21558;-73
2021/05/22 05:18:14;;;;;;;5.05;2.52;;;;;;;15.84;100.00;99073.43;1707625;82;21421;-74
2021/05/22 05:20:47;;;;;;;5.33;2.22;;;;;;;15.96;100.00;99074.41;1659531;85;20990;-73
2021/05/22 05:23:15;;;;;;;3.75;1.90;;;;;;;16.04;100.00;99070.59;1707698;82;20981;-74
2021/05/22 05:25:43;;;;;;;4.40;1.82;;;;;;;16.15;100.00;99072.10;1707856;82;21026;-74
2021/05/22 05:28:12;;;;;;;6.72;2.12;;;;;;;16.25;100.00;99070.45;1708049;82;21037;-74
2021/05/22 05:30:40;;;;;;;2.30;1.70;;;;;;;16.36;100.00;99074.11;1728221;82;20914;-74
2021/05/22 05:33:08;;;;;;;3.17;1.42;;;;;;;16.49;100.00;99074.60;1737327;82;20926;-73
2021/05/22 05:35:37;;;;;;;2.52;1.30;;;;;;;16.63;100.00;99079.06;1737389;81;21444;-72
2021/05/22 05:38:04;;;;;;;4.15;1.37;;;;;;;16.77;100.00;99080.86;1737016;81;21234;-74
2021/05/22 05:40:33;;;;;;;1.50;1.25;;;;;;;16.91;100.00;99079.95;1734473;81;20926;-74
2021/05/22 05:43:03;;;;;;;1.90;1.30;;;;;;;17.05;100.00;99073.32;1737001;81;20910;-73
2021/05/22 05:45:31;;;;;;;2.45;1.20;;;;;;;17.16;100.00;99069.37;1726611;82;20969;-74
2021/05/22 05:47:59;;;;;;;4.78;1.22;;;;;;;17.30;100.00;99071.56;1683828;83;20938;-73
2021/05/22 05:50:27;;;;;;;2.70;1.25;;;;;;;17.41;100.00;99077.39;1731119;80;21026;-72
2021/05/22 05:52:54;;;;;;;2.12;1.15;;;;;;;17.49;100.00;99079.32;1721199;82;21428;-74
2021/05/22 05:55:22;;;;;;;3.50;1.25;;;;;;;17.57;100.00;99075.95;1721407;82;20913;-74
2021/05/22 05:57:53;;;;;;;1.57;1.07;;;;;;;17.66;100.00;99072.08;1722079;82;20965;-74
2021/05/22 06:00:21;;;;;;;2.12;1.27;;;;;;;17.77;100.00;99069.93;1721480;82;20909;-74
2021/05/22 06:02:51;;;;;;;2.10;1.37;;;;;;;17.86;100.00;99080.27;1719564;82;21432;-75
2021/05/22 06:05:19;;;;;;;3.00;1.30;;;;;;;17.96;100.00;99071.92;1720783;82;20961;-76
2021/05/22 06:07:47;;;;;;;2.52;1.30;;;;;;;18.10;100.00;99065.16;1731047;82;20992;-74
2021/05/22 06:10:17;;;;;;;1.77;1.07;;;;;;;18.10;100.00;99065.16;1750773;82;20949;-75
2021/05/22 06:12:46;;;;;;;1.37;1.20;;;;;;;18.22;100.00;99070.03;1740064;80;20906;-76
2021/05/22 06:17:44;;;;;;;4.85;1.40;;;;;;;18.41;100.00;99071.98;1720798;82;20909;-73
2021/05/22 06:20:13;;;;;;;3.58;1.15;;;;;;;18.55;100.00;99067.00;1727206;82;20862;-72
2021/05/22 06:22:42;;;;;;;4.85;1.30;;;;;;;18.55;100.00;99067.00;1735355;81;21451;-68
2021/05/22 06:25:10;;;;;;;2.55;1.30;;;;;;;18.75;100.00;99076.92;1729319;82;21403;-70
2021/05/22 06:27:38;;;;;;;2.85;1.27;;;;;;;18.75;100.00;99076.92;1739345;82;21009;-73
2021/05/22 06:30:07;;;;;;;3.60;1.17;;;;;;;18.83;100.00;99076.14;1720686;82;20913;-70
2021/05/22 06:32:35;;;;;;;1.98;1.10;;;;;;;18.92;100.00;99063.77;1728266;82;20930;-70
2021/05/22 06:35:03;;;;;;;4.95;1.20;;;;;;;19.00;100.00;99067.46;1720824;82;20957;-71
2021/05/22 06:37:32;;;;;;;2.45;1.00;;;;;;;19.06;100.00;99074.76;1743235;82;21400;-70
2021/05/22 06:40:01;;;;;;;2.25;1.20;;;;;;;19.14;100.00;99075.31;1735235;80;21406;-69
2021/05/22 06:42:32;;;;;;;2.05;1.00;;;;;;;19.25;100.00;99084.68;1720518;82;20899;-71
2021/05/22 06:45:07;;;;;;;1.80;0.93;;;;;;;19.32;100.00;99084.35;1690562;83;20863;-72
2021/05/22 06:47:33;;;;;;;1.98;0.95;;;;;;;19.39;100.00;99070.25;1725243;82;20918;-71
2021/05/22 06:50:01;;;;;;;3.80;1.17;;;;;;;19.48;100.00;99073.89;1724201;82;20911;-72
2021/05/22 06:52:28;;;;;;;3.08;1.00;;;;;;;19.57;99.22;99073.99;1724112;83;21040;-72
2021/05/22 06:54:56;;;;;;;4.65;1.17;;;;;;;19.65;98.08;99071.84;1730627;81;20906;-69
2021/05/22 06:57:24;;;;;;;2.52;1.12;;;;;;;19.74;99.09;99066.09;1722677;81;20994;-67
2021/05/22 06:59:53;;;;;;;4.45;1.10;;;;;;;19.84;99.08;99070.09;1712380;82;20997;-67
2021/05/22 07:02:21;;;;;;;1.75;1.02;;;;;;;19.96;100.00;99072.71;1735647;82;20958;-67
2021/05/22 07:04:49;;;;;;;2.33;1.07;;;;;;;20.08;99.72;99074.36;1691516;83;21203;-71
2021/05/22 07:07:17;;;;;;;5.65;1.10;;;;;;;20.19;91.88;99077.88;1713773;82;21445;-71
2021/05/22 07:09:45;;;;;;;10.93;1.10;;;;;;;20.24;86.64;99073.64;1671587;84;20939;-73
2021/05/22 07:12:14;;;;;;;3.22;1.00;;;;;;;20.26;88.21;99080.67;1722018;81;20955;-74
2021/05/22 07:14:43;;;;;;;6.40;0.90;;;;;;;20.32;88.72;99080.86;1718660;82;20922;-68
2021/05/22 07:17:12;;;;;;;2.12;0.90;;;;;;;20.38;82.90;99074.77;1736975;81;21024;-74
2021/05/22 07:19:40;;;;;;;7.53;1.22;;;;;;;20.41;76.04;99094.75;1733404;81;20914;-72
2021/05/22 07:22:07;;;;;;;4.87;1.00;;;;;;;20.43;74.13;99089.32;1729821;82;20890;-74
2021/05/22 07:24:35;;;;;;;4.05;0.80;;;;;;;20.46;73.15;99091.86;1713231;81;20980;-74
2021/05/22 07:27:04;;;;;;;2.00;0.88;;;;;;;20.51;71.62;99091.17;1735118;81;21401;-66
2021/05/22 07:29:33;;;;;;;4.30;0.72;;;;;;;20.55;74.07;99093.23;1710840;82;21077;-68
2021/05/22 07:32:00;;;;;;;3.05;0.95;;;;;;;20.60;72.53;99085.37;1645413;85;20942;-66
2021/05/22 07:34:28;;;;;;;3.22;1.10;;;;;;;20.66;73.18;99097.13;1718135;82;21416;-68
2021/05/22 07:36:56;;;;;;;7.30;1.37;;;;;;;20.69;67.64;99090.75;1729833;82;20973;-70
2021/05/22 07:39:24;;;;;;;5.22;0.90;;;;;;;20.71;66.91;99085.72;1735116;82;21126;-70
2021/05/22 07:41:52;;;;;;;1.60;0.80;;;;;;;20.73;64.72;99082.96;1735485;81;21447;-70
2021/05/22 07:44:21;;;;;;;1.75;0.80;;;;;;;20.80;67.42;99071.47;1735653;81;20912;-70
2021/05/22 07:46:49;;;;;;;4.83;1.00;;;;;;;20.87;67.03;99074.28;1735565;81;20890;-69
2021/05/22 07:49:16;;;;;;;1.82;0.80;;;;;;;20.94;71.54;99067.20;1735666;81;21456;-71
2021/05/22 07:51:46;;;;;;;0.98;0.88;;;;;;;21.01;70.86;99067.28;1715482;82;20926;-70
2021/05/22 07:54:14;;;;;;;3.17;0.80;;;;;;;21.10;67.23;99065.09;1735690;82;21036;-70
2021/05/22 07:56:42;;;;;;;2.12;0.70;;;;;;;21.14;69.01;99066.20;1735663;82;21473;-71
2021/05/22 07:59:10;;;;;;;1.92;1.00;;;;;;;21.19;65.07;99067.30;1735633;81;21531;-70
2021/05/22 08:01:37;;;;;;;3.47;0.93;;;;;;;21.25;63.71;99062.53;1725847;82;20962;-70
2021/05/22 08:04:06;;;;;;;4.22;0.90;;;;;;;21.30;64.04;99056.48;1706459;82;20938;-71
2021/05/22 08:06:34;;;;;;;4.20;0.90;;;;;;;21.39;65.07;99050.25;1719338;82;21745;-69
2021/05/22 08:09:04;;;;;;;3.85;1.07;;;;;;;21.46;64.06;99057.03;1735632;82;21396;-70
2021/05/22 08:11:33;;;;;;;2.47;0.80;;;;;;;21.52;63.39;99055.37;1735655;82;20926;-70
2021/05/22 08:14:03;;;;;;;2.25;0.90;;;;;;;21.56;62.74;99055.13;1735614;82;20934;-69
2021/05/22 08:16:31;;;;;;;5.50;0.88;;;;;;;21.59;58.72;99044.23;1735782;82;20930;-70
2021/05/22 08:19:00;;;;;;;2.72;0.80;;;;;;;21.62;58.27;99049.45;1735658;81;20914;-70
2021/05/22 08:21:30;;;;;;;2.33;0.80;;;;;;;21.65;58.65;99047.94;1735611;82;20934;-69
2021/05/22 08:23:58;;;;;;;1.20;0.62;;;;;;;21.69;57.28;99040.11;1735668;82;21527;-70
2021/05/22 08:26:26;;;;;;;2.37;0.80;;;;;;;21.76;56.45;99044.72;1735641;81;20957;-70
2021/05/22 08:28:54;;;;;;;2.72;0.80;;;;;;;21.84;54.89;99043.83;1735709;81;20902;-70
2021/05/22 08:31:23;;;;;;;2.95;0.82;;;;;;;21.89;53.47;99046.27;1735671;81;21552;-69
2021/05/22 08:33:51;;;;;;;2.52;0.70;;;;;;;21.96;53.99;99054.39;1735696;82;20933;-70
2021/05/22 08:36:19;;;;;;;9.50;1.02;;;;;;;22.02;54.01;99043.31;1735777;81;20887;-70
2021/05/22 08:38:48;;;;;;;4.40;0.95;;;;;;;22.10;53.62;99042.92;1735605;81;20898;-70
2021/05/22 08:41:17;;;;;;;5.05;0.90;;;;;;;22.17;53.15;99028.20;1735692;82;20917;-71
2021/05/22 08:43:47;;;;;;;1.80;0.82;;;;;;;22.26;54.34;99030.41;1714900;82;20973;-71
2021/05/22 08:46:19;;;;;;;2.60;0.90;;;;;;;22.34;53.93;99020.58;1735600;82;21492;-70
2021/05/22 08:48:48;;;;;;;13.32;1.02;;;;;;;22.40;54.65;99029.16;1726664;81;20933;-70
2021/05/22 08:51:21;;;;;;;1.70;0.78;;;;;;;22.49;54.41;99023.74;1725803;82;21464;-70
2021/05/22 08:53:49;;;;;;;1.52;0.90;;;;;;;22.53;52.76;99023.95;1713909;81;20878;-70
2021/05/22 08:56:17;;;;;;;3.17;1.00;;;;;;;22.55;49.85;99014.85;1706418;82;21013;-70
2021/05/22 08:58:45;;;;;;;2.25;0.90;;;;;;;22.59;50.51;99015.06;1706277;82;20934;-71
2021/05/22 09:01:13;;;;;;;4.35;0.90;;;;;;;22.67;49.93;99017.79;1706369;82;20867;-69
2021/05/22 09:03:41;;;;;;;1.60;0.90;;;;;;;22.71;50.94;99018.03;1706403;84;20962;-70
2021/05/22 09:06:09;;;;;;;7.65;1.00;;;;;;;22.68;49.69;99011.45;1686132;84;20930;-69
2021/05/22 09:08:37;;;;;;;2.50;0.93;;;;;;;22.70;49.57;99018.95;1706336;82;21511;-70
2021/05/22 09:11:05;;;;;;;4.72;1.25;;;;;;;22.68;45.67;99015.48;1706268;84;20990;-69
2021/05/22 09:13:36;;;;;;;13.38;0.82;;;;;;;22.63;45.43;99007.69;1706318;82;21029;-69
2021/05/22 09:16:11;;;;;;;2.65;0.80;;;;;;;22.60;46.74;99015.45;1707546;82;21595;-70
2021/05/22 09:18:41;;;;;;;1.67;0.80;;;;;;;22.63;46.53;99010.37;1707633;82;20917;-67
2021/05/22 09:21:11;;;;;;;3.15;0.82;;;;;;;22.67;45.48;99003.87;1715481;81;21043;-68
2021/05/22 09:23:42;;;;;;;4.22;0.90;;;;;;;22.72;44.95;98996.91;1709234;82;20914;-75
2021/05/22 09:26:15;;;;;;;2.90;1.07;;;;;;;22.76;46.19;98999.81;1658930;85;21425;-69
2021/05/22 09:28:49;;;;;;;8.33;1.27;;;;;;;22.77;44.82;98993.00;1706876;82;20934;-69
2021/05/22 09:31:20;;;;;;;7.28;1.10;;;;;;;22.80;44.42;98983.89;1706131;82;21495;-66
2021/05/22 09:33:49;;;;;;;7.25;1.20;;;;;;;22.87;45.62;98991.54;1706501;83;21013;-69
2021/05/22 09:36:17;;;;;;;3.40;0.90;;;;;;;22.90;44.89;98988.67;1645382;85;20921;-70
2021/05/22 09:38:55;;;;;;;5.05;1.02;;;;;;;22.91;47.00;98986.84;1706269;82;21417;-69
2021/05/22 09:41:33;;;;;;;6.67;1.22;;;;;;;22.92;47.66;98986.75;1727510;81;21472;-67
2021/05/22 09:44:13;;;;;;;6.55;1.40;;;;;;;22.99;47.97;98976.97;1698408;82;20974;-68
2021/05/22 09:46:50;;;;;;;10.10;1.47;;;;;;;23.12;51.11;98985.56;1733314;81;21121;-69
2021/05/22 09:49:21;;;;;;;2.35;0.90;;;;;;;23.17;46.75;98983.47;1719629;83;21421;-68
2021/05/22 09:52:02;;;;;;;2.17;1.00;;;;;;;23.18;44.86;98981.19;1719764;82;20909;-66
2021/05/22 09:54:53;;;;;;;4.50;0.98;;;;;;;23.15;45.31;98973.75;1682941;83;20942;-69
2021/05/22 09:57:35;;;;;;;2.05;0.90;;;;;;;23.18;47.29;98970.91;1720113;82;20926;-69
2021/05/22 10:00:19;;;;;;;23.22;1.45;;;;;;;23.19;44.67;98975.33;1717957;82;21640;-69
2021/05/22 10:02:58;;;;;;;4.35;0.78;;;;;;;23.16;45.17;98966.06;1682917;83;20910;-69
2021/05/22 10:05:35;;;;;;;3.02;0.82;;;;;;;23.16;43.91;98957.52;1728315;82;20901;-70
2021/05/22 10:08:05;;;;;;;1.37;0.68;;;;;;;23.17;43.08;98955.21;1735770;80;20936;-70
2021/05/22 10:10:46;;;;;;;3.50;0.80;;;;;;;23.09;40.67;98952.59;1733600;82;21447;-69
2021/05/22 10:13:16;;;;;;;2.90;1.00;;;;;;;23.05;41.87;98951.05;1738973;82;21464;-69
2021/05/22 10:15:46;;;;;;;3.75;1.00;;;;;;;23.08;42.68;98946.35;1732212;80;21559;-70
2021/05/22 10:18:18;;;;;;;3.77;0.68;;;;;;;23.13;41.88;98946.07;1735221;80;21472;-69
2021/05/22 10:20:47;;;;;;;23.47;1.70;;;;;;;23.15;40.62;98932.91;1745018;80;20890;-69
2021/05/22 10:23:16;;;;;;;1.10;0.70;;;;;;;23.22;42.21;98941.03;1749644;80;20905;-70
2021/05/22 10:25:46;;;;;;;6.65;1.10;;;;;;;23.30;40.90;98942.39;1749562;82;21107;-70
2021/05/22 10:28:14;;;;;;;4.95;1.10;;;;;;;23.39;41.63;98939.99;1749646;81;20914;-69
2021/05/22 10:30:41;;;;;;;3.40;0.85;;;;;;;23.51;41.89;98935.67;1749644;80;20921;-70
2021/05/22 10:33:11;;;;;;;3.80;0.88;;;;;;;23.57;40.02;98916.95;1741124;80;20970;-69
2021/05/22 10:35:51;;;;;;;1.32;0.70;;;;;;;23.62;40.56;98917.05;1734650;82;20858;-68
2021/05/22 10:38:38;;;;;;;2.80;0.90;;;;;;;23.71;41.39;98919.67;1737301;82;21426;-70
2021/05/22 10:41:15;;;;;;;3.12;1.00;;;;;;;23.73;41.41;98918.61;1736398;80;20917;-70
2021/05/22 10:43:55;;;;;;;3.25;0.90;;;;;;;23.76;40.68;98917.08;1733898;80;20893;-69
2021/05/22 10:46:22;;;;;;;2.62;0.78;;;;;;;23.78;39.20;98917.84;1739389;80;21421;-69
2021/05/22 10:49:02;;;;;;;6.25;1.00;;;;;;;23.79;39.59;98908.80;1736273;82;21388;-70
2021/05/22 10:51:36;;;;;;;2.30;0.78;;;;;;;23.85;40.09;98913.80;1740386;80;21677;-70
2021/05/22 10:54:13;;;;;;;4.90;0.88;;;;;;;23.86;39.60;98908.78;1735901;82;20917;-69
2021/05/22 10:57:03;;;;;;;3.87;0.85;;;;;;;23.87;39.57;98904.27;1735622;81;20873;-69
2021/05/22 10:59:31;;;;;;;7.53;1.20;;;;;;;23.83;38.96;98902.25;1733702;80;20969;-70
2021/05/22 11:02:00;;;;;;;1.52;0.82;;;;;;;23.81;40.22;98896.09;1734808;81;20941;-69
2021/05/22 11:04:28;;;;;;;1.65;0.80;;;;;;;23.89;40.02;98900.12;1736503;82;21052;-69
2021/05/22 11:07:15;;;;;;;2.50;1.02;;;;;;;23.93;40.88;98892.23;1732395;82;21427;-69
2021/05/22 11:09:48;;;;;;;45.98;2.65;;;;;;;23.94;40.13;98885.39;1732374;82;20914;-70
2021/05/22 11:12:29;;;;;;;3.45;0.80;;;;;;;24.02;41.34;98882.20;1735185;80;20938;-68
2021/05/22 11:14:54;;;;;;;6.85;1.30;;;;;;;24.14;41.02;98891.72;1736774;80;20886;-68
2021/05/22 11:17:29;;;;;;;6.40;1.50;;;;;;;24.19;39.78;98884.69;1713248;82;20948;-68
2021/05/22 11:20:07;;;;;;;3.40;1.02;;;;;;;24.18;39.58;98884.30;1737306;80;20898;-68
2021/05/22 11:22:47;;;;;;;3.90;0.95;;;;;;;24.12;38.67;98881.98;1734219;80;20941;-69
2021/05/22 11:25:18;;;;;;;2.12;0.90;;;;;;;24.07;38.99;98873.33;1734424;82;21531;-67
2021/05/22 11:27:54;;;;;;;2.47;1.05;;;;;;;24.01;39.15;98880.47;1733221;81;21052;-69
2021/05/22 11:30:34;;;;;;;3.80;0.90;;;;;;;24.01;38.34;98875.08;1733805;82;21067;-69
2021/05/22 11:33:02;;;;;;;7.47;1.40;;;;;;;24.00;38.54;98871.52;1735332;82;20929;-69
2021/05/22 11:35:44;;;;;;;1.72;0.90;;;;;;;24.01;38.79;98858.44;1733191;80;20927;-68
2021/05/22 11:38:25;;;;;;;2.95;0.93;;;;;;;24.07;38.70;98867.95;1733705;82;20965;-68
2021/05/22 11:40:57;;;;;;;3.72;1.30;;;;;;;24.07;39.61;98869.30;1733658;82;20963;-68
2021/05/22 11:43:31;;;;;;;3.90;1.00;;;;;;;24.14;40.80;98867.47;1732843;80;21404;-67
2021/05/22 11:46:02;;;;;;;4.42;1.02;;;;;;;24.20;39.32;98856.77;1734410;82;20890;-68
2021/05/22 11:48:43;;;;;;;3.15;1.00;;;;;;;24.29;40.12;98864.76;1736216;80;20870;-68
2021/05/22 11:51:14;;;;;;;4.72;1.07;;;;;;;24.33;39.21;98872.54;1735755;82;20953;-66
2021/05/22 11:53:45;;;;;;;2.85;1.27;;;;;;;24.29;38.12;98864.76;1735421;82;21411;-66
2021/05/22 11:56:14;;;;;;;13.78;1.27;;;;;;;24.17;37.97;98866.41;1736426;80;21036;-65
2021/05/22 11:58:47;;;;;;;2.33;0.90;;;;;;;24.09;38.19;98868.70;1735386;81;20929;-68
2021/05/22 12:01:19;;;;;;;2.15;0.75;;;;;;;24.08;39.40;98866.50;1734216;82;21356;-68
2021/05/22 12:03:50;;;;;;;4.30;1.20;;;;;;;24.08;39.48;98861.59;1733161;80;21451;-68